Historyczne dane pomiarowe

Dodano dane terminowe – wersja testowa.

Dane z okresu 1951-2019

Wersja bazy: 1.34 [2019-03-16, lista zmian], aktualizacja planowana na 2019-04-15

Dane meteo z obszaru Polski uzyskane na podstawie danych udostępnionych przez Instytut Meteorologii i Gospodarki Wodnej – Państwowy Instytut Badawczy.

 

Wybierz Datę:    

       

TemperaturaWilgotnośćWiatrCiśnienieOpadyŚniegCzas trwania zjawisk
 Stacja t tx tn tng RH VA  wxwx mslp ppp RRR   cm mm wxwxwxwxwxwxwx
1999-08-14 15.1 21.2 8.8 0.0 75.3- 3.3 0.0---- 0.0------------
1999-08-13 16.3 20.7 12.0 0.0 77.5- 6.7 0.7---- 0.0------------
1999-08-12 18.4 21.8 16.6 0.0 79.5- 6.0 2.0---- 0.0------------
1999-08-11 20.6 24.3 17.6 0.0 82.5- 5.3 0.7---- 0.0------------
1999-08-10 22.0 30.4 17.3 0.0 85.8- 6.7 1.7---- 27.4------------
1999-08-09 22.7 31.0 14.1 0.0 78.3- 2.7 0.0---- 3.8------------
1999-08-08 21.3 26.5 15.8 0.0 82.5- 3.3 1.3---- 0.0------------
1999-08-07 20.0 28.0 11.7 0.0 77.3- 0.3 0.3---- 0.0------------
1999-08-06 18.0 21.2 12.8 0.0 78.3- 5.3 0.0---- 2.8------------
1999-08-05 17.3 26.0 10.7 0.0 79.0- 4.7 0.0---- 0.0------------
1999-08-04 16.6 22.3 11.3 9.7 87.5- 6.7 0.7---- 0.0------------
1999-08-03 16.8 20.2 13.0 11.2 87.3- 6.7 0.0---- 0.0------------
1999-08-02 15.8 18.2 13.0 12.8 89.8- 5.3 1.0---- 2.1------------
1999-08-01 17.8 23.6 13.6 11.7 83.3- 5.3 1.3---- 1.0------------
1999-07-31 18.4 25.1 10.9 8.3 73.3- 4.0 1.0---- 0.0------------
1999-07-30 16.8 25.1 8.8 7.8 67.3- 5.3 1.0---- 0.0------------
1999-07-29 17.7 24.4 11.2 9.7 71.5- 4.0 1.3---- 0.0------------
1999-07-28 18.5 21.2 17.0 15.3 86.3- 4.7 1.3---- 0.0------------
1999-07-27 20.3 26.0 15.3 15.3 84.3- 7.3 1.3---- 0.0------------
1999-07-26 21.8 29.5 13.8 11.2 80.8- 2.7 0.3---- 2.3------------
1999-07-25 17.7 24.1 10.2 9.7 87.5- 2.7 0.0---- 0.0------------
1999-07-24 17.8 23.1 13.3 12.8 80.3- 5.3 0.0---- 0.0------------
1999-07-23 16.6 22.0 14.1 13.8 92.8- 8.0 1.3---- 20.6------------
1999-07-22 21.5 28.0 12.8 11.7 76.8- 4.7 1.0---- 3.8------------
1999-07-21 21.4 29.9 12.8 10.7 74.3- 2.0 1.0---- 0.0------------
1999-07-20 21.1 29.9 10.2 9.7 61.0- 1.3 0.7---- 0.0------------
1999-07-19 18.2 26.0 7.8 6.8 69.8- 3.3 1.0---- 0.0------------
1999-07-18 17.3 25.6 9.0 8.3 76.3- 1.7 0.0---- 0.0------------
1999-07-17 16.2 23.6 7.8 7.3 77.0- 3.7 0.7---- 0.0------------
1999-07-16 16.4 23.1 8.3 6.8 77.8- 2.7 0.7---- 0.0------------
1999-07-15 17.7 21.7 15.3 14.8 86.5- 5.0 2.0---- 0.9------------
1999-07-14 19.9 24.6 14.8 13.3 83.5- 4.0 0.3---- 6.8------------
1999-07-13 20.1 24.6 16.3 15.3 86.5- 6.0 0.3---- 0.0------------
1999-07-12 20.0 28.0 13.6 11.7 79.5- 6.0 0.0---- 3.2------------
1999-07-11 21.0 25.6 17.3 15.3 77.8- 5.3 1.0---- 0.0------------
1999-07-10 20.2 24.2 17.6 17.0 81.8- 6.7 1.3---- 0.0------------
1999-07-09 22.7 26.7 17.8 16.3 74.8- 5.3 2.3---- 0.0------------
1999-07-08 23.4 28.5 18.0 16.3 78.3- 4.0 0.3---- 0.0------------
1999-07-07 22.6 28.3 17.3 15.3 77.5- 2.7 1.7---- 2.0------------
1999-07-06 23.5 30.5 14.8 13.3 68.0- 1.0 1.7---- 0.0------------
1999-07-05 22.6 31.0 13.6 12.8 67.8- 1.0 1.0---- 0.0------------
1999-07-04 21.1 29.4 13.0 11.2 76.5- 2.7 0.0---- 0.0------------
1999-07-03 19.8 25.3 12.6 12.2 77.3- 0.7 0.0---- 0.0------------
1999-07-02 19.6 25.6 13.1 11.7 81.3- 4.0 0.0---- 0.0------------
1999-07-01 19.2 26.0 12.8 9.7 75.8- 3.0 1.0---- 0.0------------
1999-06-30 19.5 25.6 12.6 11.2 78.3- 3.3 1.3---- 0.0------------
1999-06-29 19.7 26.0 12.2 10.7 81.8- 4.0 2.7---- 0.0------------
1999-06-28 19.7 28.2 9.3 7.8 70.5- 2.0 0.7---- 0.0------------
1999-06-27 17.6 25.3 10.2 7.8 72.3- 0.0 1.0---- 0.0------------
1999-06-26 14.8 22.9 6.8 5.8 75.3- 1.3 0.0---- 0.0------------
1999-06-25 14.1 18.2 10.0 9.7 85.3- 4.7 0.0---- 0.0------------
1999-06-24 11.0 12.2 10.0 9.3 97.8- 8.0 5.3---- 27.0------------
1999-06-23 10.0 11.4 8.4 8.3 96.0- 8.0 8.3---- 16.7------------
1999-06-22 14.7 19.8 11.1 10.2 94.8- 8.0 4.7---- 8.0------------
1999-06-21 19.1 24.4 15.3 13.8 88.5- 6.7 4.3---- 1.4------------
1999-06-20 19.2 22.8 16.3 16.1 84.8- 7.3 3.0---- 0.0------------
1999-06-19 18.6 24.1 13.3 12.8 86.5- 6.0 5.7---- 12.8------------
1999-06-18 18.4 26.0 14.8 13.3 85.8- 6.7 1.3---- 32.4------------
1999-06-17 20.3 24.9 15.8 14.8 82.0- 6.7 0.0---- 0.0------------
1999-06-16 19.4 23.1 16.8 15.8 88.5- 6.7 1.3---- 1.8------------
249.8 ms

 

Źródłem pochodzenia danych jest Instytut Meteorologii i Gospodarki Wodnej – Państwowy Instytut Badawczy. Dane Instytutu Meteorologii i Gospodarki Wodnej – Państwowego Instytutu Badawczego zostały przetworzone.

Dane źródłowe można odnaleźć na stronie https://dane.imgw.pl